sensor_id;sensor_type;location;lat;lon;timestamp;pressure;altitude;pressure_sealevel;temperature;humidity
9187;BME280;7273;48.902;9.410;2023-11-21T00:01:59;97434.38;;;7.96;85.49
9187;BME280;7273;48.902;9.410;2023-11-21T00:04:24;97437.34;;;7.94;85.34
9187;BME280;7273;48.902;9.410;2023-11-21T00:06:54;97429.81;;;7.96;84.44
9187;BME280;7273;48.902;9.410;2023-11-21T00:09:20;97440.03;;;7.94;84.60
9187;BME280;7273;48.902;9.410;2023-11-21T00:11:45;97440.84;;;7.95;85.27
9187;BME280;7273;48.902;9.410;2023-11-21T00:14:11;97434.38;;;7.96;85.29
9187;BME280;7273;48.902;9.410;2023-11-21T00:16:37;97432.22;;;7.98;85.25
9187;BME280;7273;48.902;9.410;2023-11-21T00:19:02;97434.38;;;7.96;85.49
9187;BME280;7273;48.902;9.410;2023-11-21T00:21:28;97426.84;;;7.98;85.27
9187;BME280;7273;48.902;9.410;2023-11-21T00:23:54;97434.09;;;7.97;85.32
9187;BME280;7273;48.902;9.410;2023-11-21T00:26:19;97431.94;;;7.99;85.51
9187;BME280;7273;48.902;9.410;2023-11-21T00:28:45;97431.41;;;7.97;85.25
9187;BME280;7273;48.902;9.410;2023-11-21T00:31:11;97430.63;;;7.97;84.99
9187;BME280;7273;48.902;9.410;2023-11-21T00:33:37;97428.16;;;8.00;84.72
9187;BME280;7273;48.902;9.410;2023-11-21T00:36:03;97430.84;;;8.00;85.47
9187;BME280;7273;48.902;9.410;2023-11-21T00:38:28;97429.78;;;8.01;85.12
9187;BME280;7273;48.902;9.410;2023-11-21T00:40:54;97432.47;;;8.01;85.14
9187;BME280;7273;48.902;9.410;2023-11-21T00:43:22;97424.94;;;8.03;85.40
9187;BME280;7273;48.902;9.410;2023-11-21T00:45:48;97423.31;;;8.02;85.67
9187;BME280;7273;48.902;9.410;2023-11-21T00:48:17;97426.53;;;8.04;86.41
9187;BME280;7273;48.902;9.410;2023-11-21T00:50:43;97431.13;;;8.04;86.26
9187;BME280;7273;48.902;9.410;2023-11-21T00:53:09;97430.31;;;8.03;85.46
9187;BME280;7273;48.902;9.410;2023-11-21T00:55:36;97430.56;;;8.07;85.64
9187;BME280;7273;48.902;9.410;2023-11-21T00:58:02;97431.66;;;8.06;85.45
9187;BME280;7273;48.902;9.410;2023-11-21T01:00:29;97427.88;;;8.07;85.08
9187;BME280;7273;48.902;9.410;2023-11-21T01:02:55;97429.22;;;8.09;85.35
9187;BME280;7273;48.902;9.410;2023-11-21T01:05:21;97431.09;;;8.09;85.71
9187;BME280;7273;48.902;9.410;2023-11-21T01:07:46;97430.31;;;8.08;85.73
9187;BME280;7273;48.902;9.410;2023-11-21T01:10:12;97427.06;;;8.11;85.59
9187;BME280;7273;48.902;9.410;2023-11-21T01:12:38;97425.69;;;8.14;85.85
9187;BME280;7273;48.902;9.410;2023-11-21T01:15:05;97425.69;;;8.14;85.75
9187;BME280;7273;48.902;9.410;2023-11-21T01:17:34;97420.03;;;8.15;85.61
9187;BME280;7273;48.902;9.410;2023-11-21T01:20:00;97414.91;;;8.19;85.50
9187;BME280;7273;48.902;9.410;2023-11-21T01:22:26;97416.53;;;8.15;85.48
9187;BME280;7273;48.902;9.410;2023-11-21T01:24:53;97416.25;;;8.22;85.30
9187;BME280;7273;48.902;9.410;2023-11-21T01:27:19;97418.69;;;8.23;85.37
9187;BME280;7273;48.902;9.410;2023-11-21T01:29:45;97413.00;;;8.19;85.58
9187;BME280;7273;48.902;9.410;2023-11-21T01:32:10;97418.41;;;8.19;85.84
9187;BME280;7273;48.902;9.410;2023-11-21T01:34:36;97423.78;;;8.19;86.24
9187;BME280;7273;48.902;9.410;2023-11-21T01:37:02;97420.28;;;8.19;86.52
9187;BME280;7273;48.902;9.410;2023-11-21T01:39:30;97415.44;;;8.21;86.41
9187;BME280;7273;48.902;9.410;2023-11-21T01:41:57;97425.38;;;8.20;86.12
9187;BME280;7273;48.902;9.410;2023-11-21T01:44:26;97424.84;;;8.24;86.52
9187;BME280;7273;48.902;9.410;2023-11-21T01:46:52;97433.19;;;8.22;86.03
9187;BME280;7273;48.902;9.410;2023-11-21T01:49:19;97422.41;;;8.22;86.28
9187;BME280;7273;48.902;9.410;2023-11-21T01:51:48;97429.44;;;8.18;86.85
9187;BME280;7273;48.902;9.410;2023-11-21T01:54:16;97421.66;;;8.16;87.95
9187;BME280;7273;48.902;9.410;2023-11-21T01:56:45;97424.84;;;8.18;87.13
9187;BME280;7273;48.902;9.410;2023-11-21T01:59:13;97420.56;;;8.17;88.13
9187;BME280;7273;48.902;9.410;2023-11-21T02:01:42;97429.19;;;8.19;88.20
9187;BME280;7273;48.902;9.410;2023-11-21T02:04:07;97429.97;;;8.20;88.76
9187;BME280;7273;48.902;9.410;2023-11-21T02:06:33;97434.31;;;8.16;89.63
9187;BME280;7273;48.902;9.410;2023-11-21T02:08:59;97432.94;;;8.18;89.73
9187;BME280;7273;48.902;9.410;2023-11-21T02:11:25;97433.75;;;8.19;88.89
9187;BME280;7273;48.902;9.410;2023-11-21T02:13:53;97432.66;;;8.25;88.59
9187;BME280;7273;48.902;9.410;2023-11-21T02:16:19;97429.16;;;8.30;87.97
9187;BME280;7273;48.902;9.410;2023-11-21T02:18:47;97427.78;;;8.32;87.15
9187;BME280;7273;48.902;9.410;2023-11-21T02:21:14;97418.63;;;8.33;87.10
9187;BME280;7273;48.902;9.410;2023-11-21T02:23:40;97422.66;;;8.36;87.06
9187;BME280;7273;48.902;9.410;2023-11-21T02:26:10;97420.78;;;8.36;87.13
9187;BME280;7273;48.902;9.410;2023-11-21T02:28:36;97416.16;;;8.37;86.60
9187;BME280;7273;48.902;9.410;2023-11-21T02:31:04;97413.47;;;8.37;86.27
9187;BME280;7273;48.902;9.410;2023-11-21T02:33:31;97417.81;;;8.38;86.55
9187;BME280;7273;48.902;9.410;2023-11-21T02:36:00;97412.69;;;8.36;86.38
9187;BME280;7273;48.902;9.410;2023-11-21T02:38:26;97408.34;;;8.40;86.19
9187;BME280;7273;48.902;9.410;2023-11-21T02:40:52;97410.22;;;8.40;86.35
9187;BME280;7273;48.902;9.410;2023-11-21T02:43:18;97415.09;;;8.38;86.26
9187;BME280;7273;48.902;9.410;2023-11-21T02:45:44;97413.19;;;8.38;86.59
9187;BME280;7273;48.902;9.410;2023-11-21T02:48:09;97414.81;;;8.39;86.67
9187;BME280;7273;48.902;9.410;2023-11-21T02:50:35;97415.63;;;8.40;86.53
9187;BME280;7273;48.902;9.410;2023-11-21T02:53:01;97412.91;;;8.40;86.71
9187;BME280;7273;48.902;9.410;2023-11-21T02:55:27;97411.31;;;8.39;86.24
9187;BME280;7273;48.902;9.410;2023-11-21T02:57:53;97399.69;;;8.43;86.49
9187;BME280;7273;48.902;9.410;2023-11-21T03:00:19;97403.22;;;8.44;86.77
9187;BME280;7273;48.902;9.410;2023-11-21T03:02:45;97406.44;;;8.46;86.82
9187;BME280;7273;48.902;9.410;2023-11-21T03:05:10;97405.63;;;8.45;86.39
9187;BME280;7273;48.902;9.410;2023-11-21T03:07:39;97410.44;;;8.48;86.32
9187;BME280;7273;48.902;9.410;2023-11-21T03:10:06;97403.19;;;8.49;86.38
9187;BME280;7273;48.902;9.410;2023-11-21T03:12:34;97414.50;;;8.51;86.22
9187;BME280;7273;48.902;9.410;2023-11-21T03:14:59;97415.28;;;8.51;86.60
9187;BME280;7273;48.902;9.410;2023-11-21T03:17:27;97420.91;;;8.55;86.69
9187;BME280;7273;48.902;9.410;2023-11-21T03:19:54;97421.72;;;8.55;86.69
9187;BME280;7273;48.902;9.410;2023-11-21T03:22:19;97413.66;;;8.55;86.28
9187;BME280;7273;48.902;9.410;2023-11-21T03:24:45;97413.13;;;8.53;86.50
9187;BME280;7273;48.902;9.410;2023-11-21T03:27:11;97421.47;;;8.52;86.25
9187;BME280;7273;48.902;9.410;2023-11-21T03:29:37;97419.31;;;8.54;86.11
9187;BME280;7273;48.902;9.410;2023-11-21T03:32:03;97415.81;;;8.53;86.35
9187;BME280;7273;48.902;9.410;2023-11-21T03:34:28;97415.03;;;8.53;86.23
9187;BME280;7273;48.902;9.410;2023-11-21T03:36:54;97413.69;;;8.50;86.52
9187;BME280;7273;48.902;9.410;2023-11-21T03:39:20;97412.06;;;8.49;86.15
9187;BME280;7273;48.902;9.410;2023-11-21T03:41:46;97412.88;;;8.50;86.10
9187;BME280;7273;48.902;9.410;2023-11-21T03:44:12;97424.44;;;8.50;85.81
9187;BME280;7273;48.902;9.410;2023-11-21T03:46:37;97424.72;;;8.54;85.98
9187;BME280;7273;48.902;9.410;2023-11-21T03:49:03;97420.13;;;8.54;85.84
9187;BME280;7273;48.902;9.410;2023-11-21T03:51:28;97420.91;;;8.55;86.10
9187;BME280;7273;48.902;9.410;2023-11-21T03:53:54;97427.69;;;8.52;85.98
9187;BME280;7273;48.902;9.410;2023-11-21T03:56:20;97424.16;;;8.52;85.77
9187;BME280;7273;48.902;9.410;2023-11-21T03:58:48;97428.50;;;8.53;85.94
9187;BME280;7273;48.902;9.410;2023-11-21T04:01:24;97432.25;;;8.52;86.18
9187;BME280;7273;48.902;9.410;2023-11-21T04:03:50;97423.34;;;8.51;86.56
9187;BME280;7273;48.902;9.410;2023-11-21T04:06:17;97427.69;;;8.52;86.52
9187;BME280;7273;48.902;9.410;2023-11-21T04:08:43;97425.56;;;8.49;86.19
9187;BME280;7273;48.902;9.410;2023-11-21T04:11:10;97423.34;;;8.51;86.24
9187;BME280;7273;48.902;9.410;2023-11-21T04:13:38;97426.06;;;8.51;86.65
9187;BME280;7273;48.902;9.410;2023-11-21T04:16:05;97429.31;;;8.48;86.24
9187;BME280;7273;48.902;9.410;2023-11-21T04:18:31;97424.19;;;8.47;86.29
9187;BME280;7273;48.902;9.410;2023-11-21T04:20:56;97429.84;;;8.50;86.50
9187;BME280;7273;48.902;9.410;2023-11-21T04:23:22;97431.22;;;8.48;86.75
9187;BME280;7273;48.902;9.410;2023-11-21T04:25:47;97425.00;;;8.47;86.79
9187;BME280;7273;48.902;9.410;2023-11-21T04:28:13;97433.63;;;8.49;86.72
9187;BME280;7273;48.902;9.410;2023-11-21T04:30:38;97427.44;;;8.49;86.83
9187;BME280;7273;48.902;9.410;2023-11-21T04:33:04;97432.00;;;8.48;86.89
9187;BME280;7273;48.902;9.410;2023-11-21T04:35:30;97431.75;;;8.45;86.48
9187;BME280;7273;48.902;9.410;2023-11-21T04:37:55;97434.97;;;8.47;86.31
9187;BME280;7273;48.902;9.410;2023-11-21T04:40:22;97441.22;;;8.37;86.38
9187;BME280;7273;48.902;9.410;2023-11-21T04:42:48;97443.38;;;8.40;86.89
9187;BME280;7273;48.902;9.410;2023-11-21T04:45:13;97440.66;;;8.40;86.56
9187;BME280;7273;48.902;9.410;2023-11-21T04:47:39;97439.63;;;8.36;86.57
9187;BME280;7273;48.902;9.410;2023-11-21T04:50:05;97442.34;;;8.31;86.77
9187;BME280;7273;48.902;9.410;2023-11-21T04:52:31;97443.41;;;8.30;87.01
9187;BME280;7273;48.902;9.410;2023-11-21T04:54:58;97451.50;;;8.30;87.23
9187;BME280;7273;48.902;9.410;2023-11-21T04:57:24;97448.81;;;8.25;87.66
9187;BME280;7273;48.902;9.410;2023-11-21T04:59:49;97449.91;;;8.24;87.35
9187;BME280;7273;48.902;9.410;2023-11-21T05:02:16;97444.53;;;8.19;87.70
9187;BME280;7273;48.902;9.410;2023-11-21T05:04:41;97451.28;;;8.16;87.96
9187;BME280;7273;48.902;9.410;2023-11-21T05:07:08;97445.63;;;8.18;88.00
9187;BME280;7273;48.902;9.410;2023-11-21T05:09:33;97448.88;;;8.15;87.97
9187;BME280;7273;48.902;9.410;2023-11-21T05:11:59;97450.19;;;8.12;87.94
9187;BME280;7273;48.902;9.410;2023-11-21T05:14:25;97452.91;;;8.12;88.24
9187;BME280;7273;48.902;9.410;2023-11-21T05:16:51;97453.69;;;8.18;87.79
9187;BME280;7273;48.902;9.410;2023-11-21T05:19:17;97452.34;;;8.15;87.61
9187;BME280;7273;48.902;9.410;2023-11-21T05:21:42;97458.53;;;8.21;87.84
9187;BME280;7273;48.902;9.410;2023-11-21T05:24:08;97463.38;;;8.24;87.99
9187;BME280;7273;48.902;9.410;2023-11-21T05:26:33;97460.13;;;8.27;87.55
9187;BME280;7273;48.902;9.410;2023-11-21T05:28:59;97460.94;;;8.28;87.58
9187;BME280;7273;48.902;9.410;2023-11-21T05:31:24;97467.41;;;8.27;87.79
9187;BME280;7273;48.902;9.410;2023-11-21T05:33:50;97473.03;;;8.30;87.28
9187;BME280;7273;48.902;9.410;2023-11-21T05:36:15;97471.16;;;8.31;87.57
9187;BME280;7273;48.902;9.410;2023-11-21T05:38:40;97471.44;;;8.29;87.41
9187;BME280;7273;48.902;9.410;2023-11-21T05:41:07;97474.13;;;8.29;87.45
9187;BME280;7273;48.902;9.410;2023-11-21T05:43:33;97476.00;;;8.29;87.88
9187;BME280;7273;48.902;9.410;2023-11-21T05:46:00;97478.97;;;8.32;87.55
9187;BME280;7273;48.902;9.410;2023-11-21T05:48:26;97483.53;;;8.32;87.43
9187;BME280;7273;48.902;9.410;2023-11-21T05:50:52;97482.19;;;8.34;87.59
9187;BME280;7273;48.902;9.410;2023-11-21T05:53:17;97482.75;;;8.36;87.73
9187;BME280;7273;48.902;9.410;2023-11-21T05:55:43;97487.03;;;8.37;87.58
9187;BME280;7273;48.902;9.410;2023-11-21T05:58:08;97482.47;;;8.38;87.14
9187;BME280;7273;48.902;9.410;2023-11-21T06:00:34;97485.16;;;8.38;87.58
9187;BME280;7273;48.902;9.410;2023-11-21T06:02:59;97493.50;;;8.36;87.79
9187;BME280;7273;48.902;9.410;2023-11-21T06:05:26;97494.84;;;8.34;87.40
9187;BME280;7273;48.902;9.410;2023-11-21T06:07:55;97497.25;;;8.35;87.60
9187;BME280;7273;48.902;9.410;2023-11-21T06:10:24;97499.69;;;8.37;87.39
9187;BME280;7273;48.902;9.410;2023-11-21T06:12:50;97505.06;;;8.37;87.60
9187;BME280;7273;48.902;9.410;2023-11-21T06:15:15;97504.78;;;8.38;87.12
9187;BME280;7273;48.902;9.410;2023-11-21T06:17:44;97511.28;;;8.37;87.36
9187;BME280;7273;48.902;9.410;2023-11-21T06:20:10;97519.63;;;8.36;87.29
9187;BME280;7273;48.902;9.410;2023-11-21T06:22:40;97514.78;;;8.38;87.04
9187;BME280;7273;48.902;9.410;2023-11-21T06:25:07;97525.84;;;8.36;87.42
9187;BME280;7273;48.902;9.410;2023-11-21T06:27:42;97530.69;;;8.34;87.43
9187;BME280;7273;48.902;9.410;2023-11-21T06:30:08;97526.34;;;8.38;87.31
9187;BME280;7273;48.902;9.410;2023-11-21T06:32:36;97521.22;;;8.37;87.24
9187;BME280;7273;48.902;9.410;2023-11-21T06:35:02;97527.44;;;8.37;87.57
9187;BME280;7273;48.902;9.410;2023-11-21T06:37:30;97526.34;;;8.38;87.24
9187;BME280;7273;48.902;9.410;2023-11-21T06:39:56;97528.75;;;8.40;87.53
9187;BME280;7273;48.902;9.410;2023-11-21T06:42:23;97533.09;;;8.41;87.47
9187;BME280;7273;48.902;9.410;2023-11-21T06:44:49;97539.81;;;8.38;87.62
9187;BME280;7273;48.902;9.410;2023-11-21T06:47:17;97539.53;;;8.40;87.74
9187;BME280;7273;48.902;9.410;2023-11-21T06:49:42;97549.78;;;8.43;87.72
9187;BME280;7273;48.902;9.410;2023-11-21T06:52:08;97547.09;;;8.43;87.77
9187;BME280;7273;48.902;9.410;2023-11-21T06:54:34;97545.19;;;8.43;88.21
9187;BME280;7273;48.902;9.410;2023-11-21T06:57:00;97547.09;;;8.43;88.14
9187;BME280;7273;48.902;9.410;2023-11-21T06:59:25;97551.66;;;8.42;87.84
9187;BME280;7273;48.902;9.410;2023-11-21T07:01:53;97554.09;;;8.44;88.06
9187;BME280;7273;48.902;9.410;2023-11-21T07:04:18;97555.19;;;8.43;87.58
9187;BME280;7273;48.902;9.410;2023-11-21T07:06:44;97557.88;;;8.43;87.91
9187;BME280;7273;48.902;9.410;2023-11-21T07:09:09;97562.16;;;8.44;87.89
9187;BME280;7273;48.902;9.410;2023-11-21T07:11:37;97569.16;;;8.45;87.79
9187;BME280;7273;48.902;9.410;2023-11-21T07:14:04;97562.16;;;8.44;87.30
9187;BME280;7273;48.902;9.410;2023-11-21T07:16:35;97572.94;;;8.44;87.26
9187;BME280;7273;48.902;9.410;2023-11-21T07:19:03;97571.84;;;8.45;87.51
9187;BME280;7273;48.902;9.410;2023-11-21T07:21:34;97573.22;;;8.47;87.50
9187;BME280;7273;48.902;9.410;2023-11-21T07:24:00;97574.53;;;8.50;88.00
9187;BME280;7273;48.902;9.410;2023-11-21T07:26:26;97578.03;;;8.50;88.49
9187;BME280;7273;48.902;9.410;2023-11-21T07:28:52;97579.66;;;8.51;88.13
9187;BME280;7273;48.902;9.410;2023-11-21T07:31:17;97579.66;;;8.51;88.08
9187;BME280;7273;48.902;9.410;2023-11-21T07:33:44;97581.81;;;8.54;87.67
9187;BME280;7273;48.902;9.410;2023-11-21T07:36:13;97580.72;;;8.55;88.12
9187;BME280;7273;48.902;9.410;2023-11-21T07:38:38;97586.66;;;8.57;87.83
9187;BME280;7273;48.902;9.410;2023-11-21T07:41:05;97589.34;;;8.57;88.06
9187;BME280;7273;48.902;9.410;2023-11-21T07:43:33;97595.50;;;8.63;88.39
9187;BME280;7273;48.902;9.410;2023-11-21T07:46:03;97601.16;;;8.61;88.23
9187;BME280;7273;48.902;9.410;2023-11-21T07:48:32;97593.38;;;8.60;88.05
9187;BME280;7273;48.902;9.410;2023-11-21T07:50:58;97601.97;;;8.67;88.25
9187;BME280;7273;48.902;9.410;2023-11-21T07:53:24;97602.25;;;8.70;88.12
9187;BME280;7273;48.902;9.410;2023-11-21T07:55:57;97610.84;;;8.72;88.25
9187;BME280;7273;48.902;9.410;2023-11-21T07:58:23;97610.59;;;8.74;88.08
9187;BME280;7273;48.902;9.410;2023-11-21T08:00:49;97610.31;;;8.75;88.50
9187;BME280;7273;48.902;9.410;2023-11-21T08:03:15;97608.66;;;8.74;88.34
9187;BME280;7273;48.902;9.410;2023-11-21T08:05:41;97613.00;;;8.75;88.27
9187;BME280;7273;48.902;9.410;2023-11-21T08:08:07;97617.28;;;8.76;88.11
9187;BME280;7273;48.902;9.410;2023-11-21T08:10:33;97614.06;;;8.74;88.37
9187;BME280;7273;48.902;9.410;2023-11-21T08:12:58;97617.28;;;8.76;88.18
9187;BME280;7273;48.902;9.410;2023-11-21T08:15:24;97621.09;;;8.75;88.42
9187;BME280;7273;48.902;9.410;2023-11-21T08:17:49;97625.94;;;8.73;88.13
9187;BME280;7273;48.902;9.410;2023-11-21T08:20:15;97634.81;;;8.79;88.11
9187;BME280;7273;48.902;9.410;2023-11-21T08:22:42;97629.97;;;8.71;88.45
9187;BME280;7273;48.902;9.410;2023-11-21T08:25:07;97627.03;;;8.72;88.85
9187;BME280;7273;48.902;9.410;2023-11-21T08:27:33;97630.78;;;8.76;88.62
9187;BME280;7273;48.902;9.410;2023-11-21T08:30:00;97629.44;;;8.74;88.70
9187;BME280;7273;48.902;9.410;2023-11-21T08:32:26;97628.34;;;8.80;88.41
9187;BME280;7273;48.902;9.410;2023-11-21T08:34:51;97632.91;;;8.84;88.40
9187;BME280;7273;48.902;9.410;2023-11-21T08:37:17;97630.75;;;8.86;88.36
9187;BME280;7273;48.902;9.410;2023-11-21T08:39:47;97631.28;;;8.83;88.47
9187;BME280;7273;48.902;9.410;2023-11-21T08:42:13;97634.00;;;8.83;88.54
9187;BME280;7273;48.902;9.410;2023-11-21T08:44:39;97636.69;;;8.83;88.48
9187;BME280;7273;48.902;9.410;2023-11-21T08:47:05;97636.13;;;8.86;88.71
9187;BME280;7273;48.902;9.410;2023-11-21T08:49:31;97635.31;;;8.91;88.66
9187;BME280;7273;48.902;9.410;2023-11-21T08:51:56;97639.91;;;8.90;88.56
9187;BME280;7273;48.902;9.410;2023-11-21T08:54:24;97644.47;;;8.90;88.85
9187;BME280;7273;48.902;9.410;2023-11-21T08:56:51;97649.03;;;8.94;88.67
9187;BME280;7273;48.902;9.410;2023-11-21T08:59:16;97648.22;;;8.94;88.48
9187;BME280;7273;48.902;9.410;2023-11-21T09:01:41;97640.13;;;8.94;88.17
9187;BME280;7273;48.902;9.410;2023-11-21T09:04:07;97652.81;;;8.98;88.17
9187;BME280;7273;48.902;9.410;2023-11-21T09:06:33;97653.31;;;9.00;88.01
9187;BME280;7273;48.902;9.410;2023-11-21T09:08:58;97649.00;;;9.04;88.04
9187;BME280;7273;48.902;9.410;2023-11-21T09:11:24;97656.00;;;9.00;88.00
9187;BME280;7273;48.902;9.410;2023-11-21T09:13:52;97655.44;;;9.08;88.10
9187;BME280;7273;48.902;9.410;2023-11-21T09:16:17;97652.22;;;9.11;88.17
9187;BME280;7273;48.902;9.410;2023-11-21T09:18:43;97659.72;;;9.19;88.21
9187;BME280;7273;48.902;9.410;2023-11-21T09:21:08;97664.81;;;9.26;88.02
9187;BME280;7273;48.902;9.410;2023-11-21T09:23:35;97658.06;;;9.28;88.04
9187;BME280;7273;48.902;9.410;2023-11-21T09:26:00;97653.69;;;9.37;88.35
9187;BME280;7273;48.902;9.410;2023-11-21T09:28:26;97664.50;;;9.37;88.10
9187;BME280;7273;48.902;9.410;2023-11-21T09:30:53;97664.97;;;9.44;87.86
9187;BME280;7273;48.902;9.410;2023-11-21T09:33:18;97664.69;;;9.46;88.13
9187;BME280;7273;48.902;9.410;2023-11-21T09:35:44;97667.06;;;9.52;88.07
9187;BME280;7273;48.902;9.410;2023-11-21T09:38:09;97666.81;;;9.54;88.29
9187;BME280;7273;48.902;9.410;2023-11-21T09:40:36;97667.88;;;9.58;88.04
9187;BME280;7273;48.902;9.410;2023-11-21T09:43:06;97663.56;;;9.57;87.83
9187;BME280;7273;48.902;9.410;2023-11-21T09:45:35;97660.34;;;9.50;87.69
9187;BME280;7273;48.902;9.410;2023-11-21T09:48:01;97667.06;;;9.57;87.93
9187;BME280;7273;48.902;9.410;2023-11-21T09:50:28;97669.44;;;9.64;87.85
9187;BME280;7273;48.902;9.410;2023-11-21T09:53:13;97672.94;;;9.65;87.70
9187;BME280;7273;48.902;9.410;2023-11-21T09:55:45;97678.06;;;9.66;87.68
9187;BME280;7273;48.902;9.410;2023-11-21T09:58:12;97676.44;;;9.70;87.66
9187;BME280;7273;48.902;9.410;2023-11-21T10:00:46;97681.56;;;9.72;87.40
9187;BME280;7273;48.902;9.410;2023-11-21T10:03:12;97680.78;;;9.66;87.51
9187;BME280;7273;48.902;9.410;2023-11-21T10:05:38;97682.69;;;9.66;87.80
9187;BME280;7273;48.902;9.410;2023-11-21T10:08:07;97686.19;;;9.61;87.75
9187;BME280;7273;48.902;9.410;2023-11-21T10:10:33;97681.09;;;9.60;87.84
9187;BME280;7273;48.902;9.410;2023-11-21T10:13:02;97687.59;;;9.59;87.94
9187;BME280;7273;48.902;9.410;2023-11-21T10:15:33;97683.00;;;9.59;87.75
9187;BME280;7273;48.902;9.410;2023-11-21T10:18:02;97690.56;;;9.57;87.84
9187;BME280;7273;48.902;9.410;2023-11-21T10:20:28;97687.59;;;9.53;87.93
9187;BME280;7273;48.902;9.410;2023-11-21T10:22:54;97694.88;;;9.53;87.98
9187;BME280;7273;48.902;9.410;2023-11-21T10:25:22;97697.59;;;9.53;88.07
9187;BME280;7273;48.902;9.410;2023-11-21T10:27:48;97691.91;;;9.54;87.89
9187;BME280;7273;48.902;9.410;2023-11-21T10:30:17;97692.19;;;9.53;87.86
9187;BME280;7273;48.902;9.410;2023-11-21T10:32:43;97701.09;;;9.53;87.91
9187;BME280;7273;48.902;9.410;2023-11-21T10:35:10;97694.59;;;9.54;87.99
9187;BME280;7273;48.902;9.410;2023-11-21T10:37:36;97699.44;;;9.57;88.05
9187;BME280;7273;48.902;9.410;2023-11-21T10:40:11;97703.53;;;9.55;87.96
9187;BME280;7273;48.902;9.410;2023-11-21T10:42:41;97698.66;;;9.57;88.21
9187;BME280;7273;48.902;9.410;2023-11-21T10:45:09;97700.25;;;9.58;88.10
9187;BME280;7273;48.902;9.410;2023-11-21T10:47:40;97698.41;;;9.53;88.06
9187;BME280;7273;48.902;9.410;2023-11-21T10:50:07;97695.97;;;9.57;88.26
9187;BME280;7273;48.902;9.410;2023-11-21T10:52:37;97700.25;;;9.58;88.09
9187;BME280;7273;48.902;9.410;2023-11-21T10:55:16;97705.66;;;9.58;88.59
9187;BME280;7273;48.902;9.410;2023-11-21T10:57:42;97701.88;;;9.59;88.72
9187;BME280;7273;48.902;9.410;2023-11-21T11:00:08;97703.50;;;9.60;88.44
9187;BME280;7273;48.902;9.410;2023-11-21T11:02:38;97699.72;;;9.56;88.80
9187;BME280;7273;48.902;9.410;2023-11-21T11:05:04;97690.56;;;9.57;88.76
9187;BME280;7273;48.902;9.410;2023-11-21T11:07:31;97696.72;;;9.63;88.86
9187;BME280;7273;48.902;9.410;2023-11-21T11:09:59;97699.44;;;9.57;88.83
9187;BME280;7273;48.902;9.410;2023-11-21T11:12:25;97698.88;;;9.66;89.00
9187;BME280;7273;48.902;9.410;2023-11-21T11:14:51;97697.81;;;9.62;88.89
9187;BME280;7273;48.902;9.410;2023-11-21T11:17:19;97694.84;;;9.58;89.03
9187;BME280;7273;48.902;9.410;2023-11-21T11:19:48;97689.72;;;9.62;89.29
9187;BME280;7273;48.902;9.410;2023-11-21T11:22:35;97698.88;;;9.66;89.24
9187;BME280;7273;48.902;9.410;2023-11-21T11:25:28;97695.03;;;9.77;89.16
9187;BME280;7273;48.902;9.410;2023-11-21T11:28:19;97700.97;;;9.79;89.43
9187;BME280;7273;48.902;9.410;2023-11-21T11:33:41;97702.19;;;9.96;89.42
9187;BME280;7273;48.902;9.410;2023-11-21T11:38:45;97706.16;;;10.04;89.13
9187;BME280;7273;48.902;9.410;2023-11-21T11:41:11;97705.31;;;10.13;88.93
9187;BME280;7273;48.902;9.410;2023-11-21T11:43:38;97705.84;;;10.15;88.82
9187;BME280;7273;48.902;9.410;2023-11-21T11:46:10;97699.63;;;10.15;88.58
9187;BME280;7273;48.902;9.410;2023-11-21T11:48:39;97702.31;;;10.15;88.64
9187;BME280;7273;48.902;9.410;2023-11-21T11:51:14;97707.19;;;10.18;88.54
9187;BME280;7273;48.902;9.410;2023-11-21T11:53:43;97709.88;;;10.18;88.58
9187;BME280;7273;48.902;9.410;2023-11-21T11:58:47;97700.44;;;10.15;88.28
9187;BME280;7273;48.902;9.410;2023-11-21T12:01:13;97696.72;;;10.06;88.45
9187;BME280;7273;48.902;9.410;2023-11-21T12:03:39;97708.63;;;10.00;88.42
9187;BME280;7273;48.902;9.410;2023-11-21T12:06:05;97712.09;;;10.06;88.44
9187;BME280;7273;48.902;9.410;2023-11-21T12:08:32;97712.38;;;10.09;88.38
9187;BME280;7273;48.902;9.410;2023-11-21T12:10:58;97711.81;;;10.07;88.26
9187;BME280;7273;48.902;9.410;2023-11-21T12:13:23;97712.66;;;10.08;88.37
9187;BME280;7273;48.902;9.410;2023-11-21T12:15:49;97711.00;;;10.12;88.18
9187;BME280;7273;48.902;9.410;2023-11-21T12:18:14;97715.84;;;10.15;88.11
9187;BME280;7273;48.902;9.410;2023-11-21T12:20:40;97718.81;;;10.13;88.12
9187;BME280;7273;48.902;9.410;2023-11-21T12:23:06;97725.56;;;10.16;88.10
9187;BME280;7273;48.902;9.410;2023-11-21T12:25:34;97718.53;;;10.15;88.25
9187;BME280;7273;48.902;9.410;2023-11-21T12:28:02;97718.28;;;10.16;88.13
9187;BME280;7273;48.902;9.410;2023-11-21T12:30:33;97710.38;;;10.20;88.09
9187;BME280;7273;48.902;9.410;2023-11-21T12:33:01;97714.72;;;10.21;88.21
9187;BME280;7273;48.902;9.410;2023-11-21T12:35:32;97720.91;;;10.21;88.35
9187;BME280;7273;48.902;9.410;2023-11-21T12:38:02;97717.19;;;10.17;88.33
9187;BME280;7273;48.902;9.410;2023-11-21T12:40:30;97728.75;;;10.23;88.11
9187;BME280;7273;48.902;9.410;2023-11-21T12:42:57;97724.72;;;10.20;88.29
9187;BME280;7273;48.902;9.410;2023-11-21T12:45:28;97736.91;;;10.18;88.11
9187;BME280;7273;48.902;9.410;2023-11-21T12:48:04;97728.75;;;10.23;87.86
9187;BME280;7273;48.902;9.410;2023-11-21T12:50:34;97732.84;;;10.15;88.10
9187;BME280;7273;48.902;9.410;2023-11-21T12:53:06;97725.56;;;10.16;88.01
9187;BME280;7273;48.902;9.410;2023-11-21T12:55:34;97733.69;;;10.16;87.87
9187;BME280;7273;48.902;9.410;2023-11-21T12:58:08;97736.09;;;10.17;88.02
9187;BME280;7273;48.902;9.410;2023-11-21T13:00:36;97737.41;;;10.20;88.17
9187;BME280;7273;48.902;9.410;2023-11-21T13:03:04;97730.94;;;10.21;88.21
9187;BME280;7273;48.902;9.410;2023-11-21T13:05:33;97733.09;;;10.19;88.22
9187;BME280;7273;48.902;9.410;2023-11-21T13:08:01;97733.69;;;10.16;88.35
9187;BME280;7273;48.902;9.410;2023-11-21T13:10:34;97732.00;;;10.20;88.39
9187;BME280;7273;48.902;9.410;2023-11-21T13:13:02;97736.34;;;10.21;88.26
9187;BME280;7273;48.902;9.410;2023-11-21T13:15:31;97739.03;;;10.21;88.20
9187;BME280;7273;48.902;9.410;2023-11-21T13:17:58;97736.06;;;10.22;88.17
9187;BME280;7273;48.902;9.410;2023-11-21T13:20:26;97742.81;;;10.20;88.21
9187;BME280;7273;48.902;9.410;2023-11-21T13:22:53;97744.47;;;10.16;88.26
9187;BME280;7273;48.902;9.410;2023-11-21T13:25:23;97747.72;;;10.18;88.42
9187;BME280;7273;48.902;9.410;2023-11-21T13:27:49;97751.50;;;10.17;88.36
9187;BME280;7273;48.902;9.410;2023-11-21T13:30:15;97760.97;;;10.14;88.38
9187;BME280;7273;48.902;9.410;2023-11-21T13:32:45;97764.47;;;10.15;88.37
9187;BME280;7273;48.902;9.410;2023-11-21T13:35:17;97763.16;;;10.12;88.62
9187;BME280;7273;48.902;9.410;2023-11-21T13:37:57;97759.91;;;10.10;88.88
9187;BME280;7273;48.902;9.410;2023-11-21T13:40:25;97760.19;;;10.09;88.75